createdAt,value
2022-10-25T00:00:08.209Z,90
2022-10-25T00:01:12.875Z,90
2022-10-25T00:02:27.673Z,90
2022-10-25T00:03:31.837Z,89
2022-10-25T00:04:36.313Z,90
2022-10-25T00:05:40.483Z,90
2022-10-25T00:06:45.138Z,90
2022-10-25T00:07:49.747Z,90
2022-10-25T00:08:54.347Z,90
2022-10-25T00:09:58.880Z,90
2022-10-25T00:11:03.045Z,89
2022-10-25T00:12:07.616Z,90
2022-10-25T00:13:12.298Z,90
2022-10-25T00:14:16.742Z,90
2022-10-25T00:15:20.793Z,90
2022-10-25T00:16:24.996Z,89
2022-10-25T00:17:29.581Z,89
2022-10-25T00:18:34.211Z,89
2022-10-25T00:19:38.878Z,89
2022-10-25T00:20:43.285Z,89
2022-10-25T00:21:47.544Z,89
2022-10-25T00:22:52.093Z,90
2022-10-25T00:23:56.561Z,90
2022-10-25T00:25:00.808Z,90
2022-10-25T00:26:05.286Z,90
2022-10-25T00:27:09.328Z,90
2022-10-25T00:28:13.561Z,89
2022-10-25T00:29:18.243Z,89
2022-10-25T00:30:22.672Z,89
2022-10-25T00:31:26.970Z,90
2022-10-25T00:32:31.348Z,90
2022-10-25T00:33:35.469Z,90
2022-10-25T00:34:39.639Z,90
2022-10-25T00:35:43.741Z,90
2022-10-25T00:36:47.820Z,90
2022-10-25T00:37:51.919Z,90
2022-10-25T00:38:56.532Z,90
2022-10-25T00:40:00.661Z,90
2022-10-25T00:41:05.332Z,89
2022-10-25T00:42:09.918Z,89
2022-10-25T00:43:14.525Z,90
2022-10-25T00:44:29.196Z,89
2022-10-25T00:45:36.328Z,89
2022-10-25T00:46:40.420Z,89
2022-10-25T00:47:44.834Z,89
2022-10-25T00:48:49.168Z,89
2022-10-25T00:50:03.989Z,89
2022-10-25T00:51:16.229Z,89
2022-10-25T00:52:20.784Z,89
2022-10-25T00:53:25.441Z,89
2022-10-25T00:54:29.943Z,89
2022-10-25T00:55:37.209Z,89
2022-10-25T00:56:41.777Z,89
2022-10-25T00:57:46.750Z,89
2022-10-25T00:58:50.921Z,89
2022-10-25T00:59:55.547Z,89
2022-10-25T01:01:00.169Z,89
2022-10-25T01:02:04.899Z,89
2022-10-25T01:03:09.336Z,90
2022-10-25T01:04:13.820Z,89
2022-10-25T01:05:18.011Z,89
2022-10-25T01:06:22.045Z,90
2022-10-25T01:07:29.217Z,89
2022-10-25T01:08:33.771Z,89
2022-10-25T01:09:37.905Z,90
2022-10-25T01:10:42.488Z,89
2022-10-25T01:11:46.632Z,89
2022-10-25T01:12:52.093Z,89
2022-10-25T01:13:55.806Z,89
2022-10-25T01:14:59.821Z,89
2022-10-25T01:16:03.997Z,89
2022-10-25T01:17:13.657Z,89
2022-10-25T01:18:26.349Z,89
2022-10-25T01:19:38.573Z,89
2022-10-25T01:20:53.494Z,89
2022-10-25T01:22:03.209Z,89
2022-10-25T01:23:07.852Z,89
2022-10-25T01:24:20.496Z,89
2022-10-25T01:25:30.141Z,89
2022-10-25T01:26:42.294Z,89
2022-10-25T01:27:51.991Z,90
2022-10-25T01:29:01.148Z,90
2022-10-25T01:30:13.432Z,89
2022-10-25T01:31:23.737Z,89
2022-10-25T01:32:28.248Z,89
2022-10-25T01:33:42.944Z,89
2022-10-25T01:34:55.328Z,89
2022-10-25T01:36:10.117Z,89
2022-10-25T01:37:14.661Z,89
2022-10-25T01:38:19.168Z,89
2022-10-25T01:39:33.981Z,89
2022-10-25T01:40:46.168Z,89
2022-10-25T01:41:50.324Z,89
2022-10-25T01:43:05.193Z,89
2022-10-25T01:44:09.702Z,89
2022-10-25T01:45:21.996Z,89
2022-10-25T01:46:29.204Z,89
2022-10-25T01:47:33.733Z,89
2022-10-25T01:48:38.388Z,89
2022-10-25T01:49:48.016Z,89
2022-10-25T01:51:00.312Z,89
2022-10-25T01:52:09.909Z,89
2022-10-25T01:53:14.114Z,89
2022-10-25T01:54:18.688Z,90
2022-10-25T01:55:23.260Z,90
2022-10-25T01:56:35.448Z,90
2022-10-25T01:57:42.604Z,90
2022-10-25T01:58:49.910Z,89
2022-10-25T02:00:04.571Z,89
2022-10-25T02:01:14.533Z,89
2022-10-25T02:02:23.945Z,89
2022-10-25T02:03:33.662Z,89
2022-10-25T02:04:40.861Z,90
2022-10-25T02:05:50.400Z,90
2022-10-25T02:07:05.287Z,90
2022-10-25T02:08:12.466Z,89
2022-10-25T02:09:27.228Z,89
2022-10-25T02:10:34.401Z,89
2022-10-25T02:11:41.512Z,89
2022-10-25T02:12:45.761Z,90
2022-10-25T02:13:50.268Z,90
2022-10-25T02:14:59.864Z,90
2022-10-25T02:16:07.232Z,89
2022-10-25T02:17:11.720Z,90
2022-10-25T02:18:16.352Z,90
2022-10-25T02:19:20.927Z,90
2022-10-25T02:20:25.516Z,90
2022-10-25T02:21:30.192Z,89
2022-10-25T02:22:34.728Z,90
2022-10-25T02:23:38.777Z,90
2022-10-25T02:24:42.932Z,90
2022-10-25T02:25:47.470Z,90
2022-10-25T02:26:51.450Z,89
2022-10-25T02:27:55.629Z,90
2022-10-25T02:28:59.684Z,90
2022-10-25T02:30:03.788Z,90
2022-10-25T02:31:08.488Z,89
2022-10-25T02:32:13.047Z,90
2022-10-25T02:33:17.113Z,90
2022-10-25T02:34:21.193Z,90
2022-10-25T02:35:25.428Z,90
2022-10-25T02:36:29.919Z,90
2022-10-25T02:37:33.949Z,90
2022-10-25T02:38:38.172Z,90
2022-10-25T02:39:42.765Z,90
2022-10-25T02:40:47.344Z,90
2022-10-25T02:41:52.017Z,90
2022-10-25T02:42:56.637Z,90
2022-10-25T02:44:01.020Z,90
2022-10-25T02:45:05.142Z,90
2022-10-25T02:46:09.789Z,90
2022-10-25T02:47:14.432Z,90
2022-10-25T02:48:18.976Z,90
2022-10-25T02:49:23.080Z,90
2022-10-25T02:50:27.684Z,90
2022-10-25T02:51:32.309Z,89
2022-10-25T02:52:37.077Z,89
2022-10-25T02:53:41.476Z,90
2022-10-25T02:54:46.148Z,90
2022-10-25T02:55:50.928Z,89
2022-10-25T02:57:00.340Z,89
2022-10-25T02:58:05.082Z,90
2022-10-25T02:59:09.676Z,89
2022-10-25T03:00:14.413Z,89
2022-10-25T03:01:18.963Z,89
2022-10-25T03:02:23.664Z,89
2022-10-25T03:03:28.092Z,89
2022-10-25T03:04:32.629Z,89
2022-10-25T03:05:37.176Z,89
2022-10-25T03:06:41.344Z,89
2022-10-25T03:07:45.900Z,89
2022-10-25T03:08:50.463Z,89
2022-10-25T03:09:55.005Z,89
2022-10-25T03:10:59.191Z,89
2022-10-25T03:12:03.768Z,89
2022-10-25T03:13:08.452Z,90
2022-10-25T03:14:13.015Z,90
2022-10-25T03:15:17.528Z,90
2022-10-25T03:16:22.207Z,90
2022-10-25T03:17:26.716Z,90
2022-10-25T03:18:30.808Z,90
2022-10-25T03:19:35.494Z,90
2022-10-25T03:20:40.139Z,90
2022-10-25T03:21:44.684Z,90
2022-10-25T03:22:49.311Z,90
2022-10-25T03:23:53.778Z,90
2022-10-25T03:24:58.109Z,90
2022-10-25T03:26:02.603Z,90
2022-10-25T03:27:07.142Z,90
2022-10-25T03:28:11.682Z,90
2022-10-25T03:29:15.774Z,89
2022-10-25T03:30:20.455Z,89
2022-10-25T03:31:25.126Z,89
2022-10-25T03:32:29.554Z,90
2022-10-25T03:33:33.668Z,89
2022-10-25T03:34:38.265Z,90
2022-10-25T03:35:42.915Z,90
2022-10-25T03:36:47.358Z,90
2022-10-25T03:37:51.481Z,90
2022-10-25T03:38:56.085Z,90
2022-10-25T03:40:00.695Z,90
2022-10-25T03:41:05.366Z,90
2022-10-25T03:42:09.874Z,90
2022-10-25T03:43:14.513Z,90
2022-10-25T03:44:19.094Z,89
2022-10-25T03:45:23.646Z,90
2022-10-25T03:46:28.334Z,90
2022-10-25T03:47:32.983Z,90
2022-10-25T03:48:37.339Z,90
2022-10-25T03:49:41.418Z,90
2022-10-25T03:50:45.643Z,90
2022-10-25T03:51:51.102Z,90
2022-10-25T03:52:54.165Z,90
2022-10-25T03:53:58.319Z,90
2022-10-25T03:55:02.418Z,90
2022-10-25T03:56:07.172Z,90
2022-10-25T03:57:11.703Z,90
2022-10-25T03:58:16.446Z,90
2022-10-25T03:59:21.126Z,90
2022-10-25T04:00:25.499Z,90
2022-10-25T04:01:30.207Z,90
2022-10-25T04:02:34.699Z,90
2022-10-25T04:03:39.127Z,89
2022-10-25T04:04:43.840Z,89
2022-10-25T04:05:48.406Z,90
2022-10-25T04:06:52.912Z,90
2022-10-25T04:07:57.014Z,90
2022-10-25T04:09:01.015Z,90
2022-10-25T04:10:05.322Z,90
2022-10-25T04:11:10.122Z,90
2022-10-25T04:12:14.547Z,90
2022-10-25T04:13:19.050Z,90
2022-10-25T04:14:23.202Z,90
2022-10-25T04:15:27.805Z,90
2022-10-25T04:16:32.454Z,90
2022-10-25T04:17:36.948Z,90
2022-10-25T04:18:41.055Z,89
2022-10-25T04:19:45.699Z,90
2022-10-25T04:20:50.181Z,89
2022-10-25T04:21:54.474Z,89
2022-10-25T04:22:58.923Z,89
2022-10-25T04:24:04.205Z,89
2022-10-25T04:25:07.267Z,89
2022-10-25T04:26:11.726Z,89
2022-10-25T04:27:16.316Z,90
2022-10-25T04:28:20.566Z,90
2022-10-25T04:29:25.171Z,90
2022-10-25T04:30:29.526Z,90
2022-10-25T04:31:33.627Z,90
2022-10-25T04:32:37.831Z,90
2022-10-25T04:33:44.012Z,90
2022-10-25T04:34:49.442Z,90
2022-10-25T04:35:53.922Z,90
2022-10-25T04:36:58.002Z,89
2022-10-25T04:38:02.162Z,90
2022-10-25T04:39:06.326Z,90
2022-10-25T04:40:10.917Z,90
2022-10-25T04:41:15.498Z,90
2022-10-25T04:42:19.719Z,90
2022-10-25T04:43:24.431Z,90
2022-10-25T04:44:28.890Z,90
2022-10-25T04:45:33.438Z,90
2022-10-25T04:46:37.963Z,90
2022-10-25T04:47:42.078Z,89
2022-10-25T04:48:46.545Z,90
2022-10-25T04:49:50.789Z,90
2022-10-25T04:50:55.670Z,90
2022-10-25T04:51:59.862Z,90
2022-10-25T04:53:04.174Z,90
2022-10-25T04:54:08.594Z,90
2022-10-25T04:55:12.785Z,90
2022-10-25T04:56:17.602Z,90
2022-10-25T04:57:22.095Z,90
2022-10-25T04:58:28.761Z,89
2022-10-25T04:59:31.350Z,90
2022-10-25T05:00:35.818Z,89
2022-10-25T05:01:40.506Z,89
2022-10-25T05:02:45.809Z,90
2022-10-25T05:03:49.578Z,90
2022-10-25T05:04:54.341Z,89
2022-10-25T05:05:58.618Z,90
2022-10-25T05:07:10.438Z,90
2022-10-25T05:08:14.638Z,90
2022-10-25T05:09:19.066Z,90
2022-10-25T05:10:23.155Z,89
2022-10-25T05:11:27.517Z,90
2022-10-25T05:12:32.002Z,90
2022-10-25T05:13:36.726Z,89
2022-10-25T05:15:23.574Z,89
2022-10-25T05:16:27.894Z,90
2022-10-25T05:17:31.978Z,90
2022-10-25T05:18:36.034Z,90
2022-10-25T05:19:40.223Z,90
2022-10-25T05:20:48.938Z,90
2022-10-25T05:21:56.155Z,90
2022-10-25T05:23:00.717Z,90
2022-10-25T05:24:05.218Z,90
2022-10-25T05:25:09.575Z,90
2022-10-25T05:30:13.176Z,90
2022-10-25T05:32:19.713Z,90
2022-10-25T05:34:59.850Z,89
2022-10-25T05:36:04.710Z,90
2022-10-25T05:37:09.190Z,90
2022-10-25T05:38:13.702Z,89
2022-10-25T05:39:44.939Z,89
2022-10-25T05:40:50.576Z,89
2022-10-25T05:41:55.747Z,90
2022-10-25T05:43:00.654Z,89
2022-10-25T05:44:05.225Z,90
2022-10-25T05:45:11.158Z,89
2022-10-25T05:46:16.122Z,90
2022-10-25T05:47:23.963Z,89
2022-10-25T05:48:28.222Z,90
2022-10-25T05:49:33.453Z,90
2022-10-25T05:51:08.338Z,90
2022-10-25T05:52:12.579Z,89
2022-10-25T05:53:17.055Z,90
2022-10-25T05:54:21.701Z,89
2022-10-25T05:55:26.386Z,90
2022-10-25T06:04:11.402Z,90
2022-10-25T06:06:17.871Z,90
2022-10-25T06:11:24.938Z,90
2022-10-25T06:12:29.067Z,90
2022-10-25T06:13:33.254Z,90
2022-10-25T06:14:37.654Z,90
2022-10-25T06:15:41.938Z,90
2022-10-25T06:20:02.202Z,89
2022-10-25T06:21:07.110Z,90
2022-10-25T06:22:11.514Z,90
2022-10-25T06:24:17.802Z,90
2022-10-25T06:26:34.866Z,90
2022-10-25T06:28:41.857Z,90
2022-10-25T06:41:05.931Z,89
2022-10-25T06:42:52.313Z,89
2022-10-25T06:43:56.873Z,90
2022-10-25T07:21:03.063Z,90
2022-10-25T07:23:14.413Z,90
2022-10-25T07:25:31.230Z,90
2022-10-25T07:27:37.878Z,90
2022-10-25T07:29:44.851Z,90
2022-10-25T07:42:28.062Z,89
2022-10-25T07:44:34.713Z,89
2022-10-25T07:46:41.264Z,89
2022-10-25T07:49:32.949Z,90
2022-10-25T07:50:37.281Z,90
2022-10-25T07:51:41.753Z,89
2022-10-25T07:52:46.262Z,90
2022-10-25T07:53:59.950Z,89
2022-10-25T07:55:04.284Z,89
2022-10-25T07:56:08.819Z,89
2022-10-25T07:57:13.554Z,90
2022-10-25T07:58:18.104Z,89
2022-10-25T07:59:33.814Z,89
2022-10-25T08:00:38.866Z,89
2022-10-25T08:01:43.143Z,89
2022-10-25T08:02:47.652Z,89
2022-10-25T08:03:52.157Z,89
2022-10-25T08:05:18.605Z,89
2022-10-25T08:06:22.742Z,89
2022-10-25T08:07:27.785Z,88
2022-10-25T08:08:32.502Z,88
2022-10-25T08:09:38.501Z,89
2022-10-25T08:10:53.950Z,89
2022-10-25T08:11:58.276Z,88
2022-10-25T08:13:02.525Z,88
2022-10-25T08:14:07.234Z,88
2022-10-25T08:15:11.733Z,88
2022-10-25T08:16:19.006Z,89
2022-10-25T08:17:23.581Z,89
2022-10-25T08:18:28.752Z,89
2022-10-25T08:19:33.224Z,88
2022-10-25T08:21:00.429Z,88
2022-10-25T08:21:47.224Z,89
2022-10-25T08:22:51.417Z,88
2022-10-25T08:23:58.618Z,88
2022-10-25T08:25:03.417Z,88
2022-10-25T08:26:07.901Z,88
2022-10-25T08:27:22.086Z,88
2022-10-25T08:28:26.742Z,88
2022-10-25T08:29:33.887Z,87
2022-10-25T08:30:38.372Z,87
2022-10-25T08:31:42.525Z,88
2022-10-25T08:33:11.554Z,88
2022-10-25T08:34:13.071Z,88
2022-10-25T08:35:17.121Z,88
2022-10-25T08:36:22.091Z,88
2022-10-25T08:37:26.501Z,88
2022-10-25T08:39:59.050Z,88
2022-10-25T08:41:03.776Z,88
2022-10-25T08:42:13.328Z,88
2022-10-25T08:43:20.134Z,88
2022-10-25T08:44:37.033Z,88
2022-10-25T08:45:47.167Z,88
2022-10-25T08:47:01.193Z,88
2022-10-25T08:48:14.380Z,88
2022-10-25T08:49:18.421Z,88
2022-10-25T08:50:22.962Z,88
2022-10-25T08:52:37.492Z,88
2022-10-25T08:53:43.593Z,88
2022-10-25T08:54:48.021Z,88
2022-10-25T08:56:15.913Z,88
2022-10-25T08:57:15.688Z,88
2022-10-25T08:58:19.698Z,88
2022-10-25T08:59:34.424Z,88
2022-10-25T09:00:38.978Z,89
2022-10-25T09:01:45.122Z,89
2022-10-25T09:02:49.109Z,89
2022-10-25T09:03:53.297Z,89
2022-10-25T09:04:57.701Z,89
2022-10-25T09:06:01.850Z,88
2022-10-25T09:07:27.103Z,89
2022-10-25T09:08:39.106Z,89
2022-10-25T09:09:46.244Z,88
2022-10-25T09:10:50.430Z,88
2022-10-25T09:12:05.207Z,88
2022-10-25T09:13:19.861Z,88
2022-10-25T09:14:34.733Z,88
2022-10-25T09:15:49.510Z,88
2022-10-25T09:17:01.716Z,88
2022-10-25T09:18:11.893Z,88
2022-10-25T09:19:15.880Z,88
2022-10-25T09:20:30.727Z,87
2022-10-25T09:21:34.780Z,87
2022-10-25T09:22:45.007Z,87
2022-10-25T09:23:49.119Z,87
2022-10-25T09:25:01.832Z,86
2022-10-25T09:26:08.882Z,87
2022-10-25T09:27:18.229Z,86
2022-10-25T09:28:30.309Z,86
2022-10-25T09:29:45.145Z,86
2022-10-25T09:30:57.283Z,86
2022-10-25T09:32:01.401Z,86
2022-10-25T09:34:57.893Z,85
2022-10-25T09:36:02.204Z,86
2022-10-25T09:37:06.750Z,86
2022-10-25T09:38:11.353Z,86
2022-10-25T09:41:19.805Z,85
2022-10-25T09:42:27.040Z,85
2022-10-25T09:43:31.625Z,85
2022-10-25T09:45:42.980Z,85
2022-10-25T09:46:49.970Z,85
2022-10-25T09:47:59.736Z,85
2022-10-25T09:49:06.872Z,85
2022-10-25T09:50:11.053Z,85
2022-10-25T09:51:25.836Z,85
2022-10-25T09:52:35.376Z,84
2022-10-25T09:53:50.164Z,84
2022-10-25T09:54:54.247Z,84
2022-10-25T09:56:03.901Z,84
2022-10-25T09:57:07.941Z,84
2022-10-25T09:58:12.240Z,84
2022-10-25T09:59:21.861Z,84
2022-10-25T10:00:27.992Z,84
2022-10-25T10:02:34.808Z,84
2022-10-25T10:04:41.316Z,84
2022-10-25T10:05:49.986Z,84
2022-10-25T10:06:54.348Z,84
2022-10-25T10:07:58.608Z,84
2022-10-25T10:09:03.173Z,84
2022-10-25T10:10:07.784Z,84
2022-10-25T10:11:17.248Z,83
2022-10-25T10:12:21.448Z,83
2022-10-25T10:13:28.600Z,83
2022-10-25T10:14:43.481Z,83
2022-10-25T10:15:53.149Z,83
2022-10-25T10:17:15.573Z,83
2022-10-25T10:18:20.059Z,83
2022-10-25T10:19:29.668Z,83
2022-10-25T10:20:33.916Z,83
2022-10-25T10:21:39.045Z,83
2022-10-25T10:22:57.888Z,83
2022-10-25T10:24:02.404Z,83
2022-10-25T10:25:06.943Z,83
2022-10-25T10:26:11.156Z,83
2022-10-25T10:28:19.836Z,83
2022-10-25T10:29:24.320Z,83
2022-10-25T10:30:28.428Z,83
2022-10-25T10:31:32.521Z,84
2022-10-25T10:32:36.743Z,84
2022-10-25T10:33:45.013Z,84
2022-10-25T10:35:51.588Z,84
2022-10-25T10:37:58.177Z,84
2022-10-25T10:39:26.984Z,84
2022-10-25T10:40:31.180Z,83
2022-10-25T10:41:35.749Z,83
2022-10-25T10:42:39.832Z,83
2022-10-25T10:43:43.973Z,83
2022-10-25T10:44:59.099Z,83
2022-10-25T10:46:06.273Z,84
2022-10-25T10:47:10.617Z,83
2022-10-25T10:48:14.992Z,84
2022-10-25T10:49:19.056Z,83
2022-10-25T10:52:48.934Z,83
2022-10-25T10:53:58.444Z,83
2022-10-25T10:55:13.192Z,83
2022-10-25T10:56:34.010Z,83
2022-10-25T10:57:40.024Z,83
2022-10-25T10:58:44.261Z,82
2022-10-25T10:59:51.469Z,83
2022-10-25T11:00:55.860Z,82
2022-10-25T11:02:01.293Z,82
2022-10-25T11:03:15.767Z,82
2022-10-25T11:04:30.577Z,82
2022-10-25T11:05:34.624Z,82
2022-10-25T11:06:39.236Z,82
2022-10-25T11:07:56.971Z,82
2022-10-25T11:09:01.135Z,82
2022-10-25T11:10:10.733Z,82
2022-10-25T11:11:18.068Z,82
2022-10-25T11:12:22.540Z,82
2022-10-25T11:13:30.977Z,82
2022-10-25T11:14:35.459Z,82
2022-10-25T11:15:40.030Z,82
2022-10-25T11:16:54.715Z,82
2022-10-25T11:18:04.260Z,82
2022-10-25T11:19:22.053Z,82
2022-10-25T11:21:33.783Z,82
2022-10-25T11:23:45.260Z,82
2022-10-25T11:25:11.128Z,81
2022-10-25T11:26:25.888Z,81
2022-10-25T11:27:34.320Z,81
2022-10-25T11:28:47.407Z,80
2022-10-25T11:29:59.708Z,79
2022-10-25T11:31:09.383Z,78
2022-10-25T11:32:24.317Z,77
2022-10-25T11:33:36.297Z,77
2022-10-25T11:34:51.208Z,78
2022-10-25T11:36:03.984Z,77
2022-10-25T11:37:13.701Z,77
2022-10-25T11:38:17.653Z,77
2022-10-25T11:39:32.655Z,76
2022-10-25T11:40:47.400Z,75
2022-10-25T11:42:01.923Z,75
2022-10-25T11:43:13.765Z,75
2022-10-25T11:44:18.464Z,75
2022-10-25T11:45:26.031Z,74
2022-10-25T11:47:00.000Z,75
2022-10-25T11:48:09.699Z,75
2022-10-25T11:49:24.568Z,74
2022-10-25T11:50:37.303Z,75
2022-10-25T11:51:47.047Z,74
2022-10-25T11:52:59.210Z,74
2022-10-25T11:54:11.370Z,74
2022-10-25T11:55:18.597Z,74
2022-10-25T11:56:28.249Z,74
2022-10-25T11:57:39.157Z,74
2022-10-25T11:58:46.004Z,73
2022-10-25T12:00:00.815Z,74
2022-10-25T12:01:10.503Z,73
2022-10-25T12:02:21.166Z,73
2022-10-25T12:03:35.536Z,71
2022-10-25T12:04:50.484Z,73
2022-10-25T12:05:59.964Z,73
2022-10-25T12:07:20.012Z,73
2022-10-25T12:08:32.688Z,73
2022-10-25T12:09:42.239Z,72
2022-10-25T12:10:49.378Z,72
2022-10-25T12:11:53.499Z,72
2022-10-25T12:13:03.158Z,73
2022-10-25T12:14:17.962Z,72
2022-10-25T12:15:24.631Z,72
2022-10-25T12:16:37.621Z,71
2022-10-25T12:17:41.932Z,71
2022-10-25T12:18:46.060Z,71
2022-10-25T12:19:50.639Z,72
2022-10-25T12:20:55.179Z,70
2022-10-25T12:22:00.863Z,70
2022-10-25T12:23:06.871Z,70
2022-10-25T12:24:11.602Z,69
2022-10-25T12:25:21.840Z,70
2022-10-25T12:26:31.468Z,71
2022-10-25T12:27:35.956Z,71
2022-10-25T12:28:40.116Z,71
2022-10-25T12:29:47.165Z,70
2022-10-25T12:30:54.354Z,70
2022-10-25T12:32:01.247Z,69
2022-10-25T12:33:06.023Z,68
2022-10-25T12:34:15.504Z,69
2022-10-25T12:35:19.857Z,69
2022-10-25T12:36:24.004Z,69
2022-10-25T12:37:36.220Z,69
2022-10-25T12:38:40.816Z,68
2022-10-25T12:39:44.994Z,68
2022-10-25T12:40:50.707Z,68
2022-10-25T12:41:55.272Z,68
2022-10-25T12:42:59.607Z,68
2022-10-25T12:44:07.063Z,68
2022-10-25T12:45:16.753Z,69
2022-10-25T12:46:31.708Z,68
2022-10-25T12:47:48.467Z,68
2022-10-25T12:49:00.435Z,68
2022-10-25T12:50:12.566Z,68
2022-10-25T12:51:21.734Z,68
2022-10-25T12:52:36.503Z,69
2022-10-25T12:53:40.716Z,69
2022-10-25T12:54:50.601Z,69
2022-10-25T12:56:05.067Z,69
2022-10-25T12:57:14.775Z,70
2022-10-25T12:58:24.284Z,69
2022-10-25T12:59:33.695Z,70
2022-10-25T13:00:43.727Z,68
2022-10-25T13:01:53.149Z,68
2022-10-25T13:03:06.689Z,66
2022-10-25T13:04:15.051Z,67
2022-10-25T13:05:29.852Z,67
2022-10-25T13:06:37.231Z,67
2022-10-25T13:07:43.043Z,67
2022-10-25T13:08:47.320Z,66
2022-10-25T13:09:51.909Z,66
2022-10-25T13:10:56.761Z,67
2022-10-25T13:12:01.235Z,66
2022-10-25T13:13:08.288Z,66
2022-10-25T13:14:18.083Z,66
2022-10-25T13:15:32.660Z,66
2022-10-25T13:16:42.023Z,67
2022-10-25T13:17:46.560Z,67
2022-10-25T13:19:01.179Z,67
2022-10-25T13:20:13.656Z,67
2022-10-25T13:21:24.070Z,67
2022-10-25T13:22:37.888Z,67
2022-10-25T13:23:41.033Z,67
2022-10-25T13:24:48.325Z,67
2022-10-25T13:25:52.938Z,67
2022-10-25T13:26:57.580Z,66
2022-10-25T13:28:12.231Z,66
2022-10-25T13:29:16.259Z,67
2022-10-25T13:30:31.912Z,67
2022-10-25T13:31:35.653Z,67
2022-10-25T13:32:43.045Z,67
2022-10-25T13:33:47.895Z,67
2022-10-25T13:34:52.196Z,67
2022-10-25T13:35:57.159Z,67
2022-10-25T13:37:01.751Z,67
2022-10-25T13:38:06.119Z,67
2022-10-25T13:39:10.431Z,67
2022-10-25T13:40:19.102Z,67
2022-10-25T13:41:23.208Z,67
2022-10-25T13:42:27.404Z,67
2022-10-25T13:43:37.599Z,67
2022-10-25T13:44:52.280Z,67
2022-10-25T13:46:04.525Z,67
2022-10-25T13:47:08.588Z,67
2022-10-25T13:48:23.519Z,67
2022-10-25T13:49:30.599Z,67
2022-10-25T13:50:34.696Z,67
2022-10-25T13:51:46.047Z,67
2022-10-25T13:52:50.719Z,67
2022-10-25T13:54:01.120Z,67
2022-10-25T13:55:05.439Z,68
2022-10-25T13:56:09.995Z,68
2022-10-25T13:57:22.198Z,67
2022-10-25T13:58:37.076Z,68
2022-10-25T13:59:41.167Z,67
2022-10-25T14:00:49.799Z,67
2022-10-25T14:01:53.042Z,68
2022-10-25T14:02:56.907Z,68
2022-10-25T14:04:09.091Z,68
2022-10-25T14:05:24.076Z,68
2022-10-25T14:06:33.684Z,68
2022-10-25T14:07:38.195Z,68
2022-10-25T14:08:42.433Z,68
2022-10-25T14:09:52.020Z,68
2022-10-25T14:10:56.107Z,68
2022-10-25T14:12:11.143Z,68
2022-10-25T14:13:12.428Z,68
2022-10-25T14:14:16.674Z,67
2022-10-25T14:15:38.668Z,68
2022-10-25T14:16:53.276Z,68
2022-10-25T14:18:05.644Z,67
2022-10-25T14:19:10.089Z,67
2022-10-25T14:20:20.395Z,67
2022-10-25T14:21:30.545Z,67
2022-10-25T14:22:34.734Z,67
2022-10-25T14:23:44.579Z,67
2022-10-25T14:24:48.971Z,67
2022-10-25T14:25:53.142Z,66
2022-10-25T14:26:57.453Z,67
2022-10-25T14:28:04.071Z,68
2022-10-25T14:29:13.616Z,67
2022-10-25T14:30:17.782Z,66
2022-10-25T14:31:30.051Z,67
2022-10-25T14:32:34.571Z,67
2022-10-25T14:33:41.847Z,67
2022-10-25T14:34:53.373Z,67
2022-10-25T14:35:57.448Z,67
2022-10-25T14:37:06.754Z,67
2022-10-25T14:38:10.799Z,67
2022-10-25T14:39:14.957Z,67
2022-10-25T14:40:18.987Z,67
2022-10-25T14:41:24.055Z,67
2022-10-25T14:42:33.240Z,67
2022-10-25T14:43:37.989Z,67
2022-10-25T14:44:42.671Z,68
2022-10-25T14:45:47.320Z,68
2022-10-25T14:46:59.407Z,68
2022-10-25T14:48:03.458Z,68
2022-10-25T14:49:10.639Z,68
2022-10-25T14:50:14.819Z,68
2022-10-25T14:51:18.899Z,68
2022-10-25T14:52:26.203Z,68
2022-10-25T14:53:30.715Z,69
2022-10-25T14:54:35.995Z,68
2022-10-25T14:55:40.473Z,68
2022-10-25T14:56:50.079Z,69
2022-10-25T14:57:59.114Z,69
2022-10-25T14:59:03.383Z,69
2022-10-25T15:00:08.035Z,69
2022-10-25T15:01:18.386Z,69
2022-10-25T15:02:22.291Z,69
2022-10-25T15:03:30.087Z,69
2022-10-25T15:04:34.601Z,70
2022-10-25T15:05:40.047Z,69
2022-10-25T15:06:44.399Z,70
2022-10-25T15:07:48.943Z,70
2022-10-25T15:09:10.390Z,70
2022-10-25T15:10:00.525Z,71
2022-10-25T15:11:08.013Z,70
2022-10-25T15:12:10.483Z,70
2022-10-25T15:13:14.595Z,70
2022-10-25T15:14:26.345Z,71
2022-10-25T15:15:30.778Z,71
2022-10-25T15:16:40.136Z,71
2022-10-25T15:17:44.215Z,71
2022-10-25T15:18:51.351Z,71
2022-10-25T15:20:03.653Z,71
2022-10-25T15:21:13.300Z,71
2022-10-25T15:22:17.363Z,71
2022-10-25T15:23:21.463Z,71
2022-10-25T15:24:25.554Z,71
2022-10-25T15:25:31.043Z,71
2022-10-25T15:26:36.866Z,71
2022-10-25T15:27:39.491Z,71
2022-10-25T15:28:44.047Z,71
2022-10-25T15:30:56.014Z,72
2022-10-25T15:32:00.454Z,73
2022-10-25T15:33:04.899Z,73
2022-10-25T15:34:11.619Z,73
2022-10-25T15:35:15.911Z,73
2022-10-25T15:36:21.975Z,73
2022-10-25T15:37:26.592Z,73
2022-10-25T15:38:42.314Z,74
2022-10-25T15:39:35.669Z,74
2022-10-25T15:40:39.750Z,74
2022-10-25T15:41:50.094Z,74
2022-10-25T15:42:54.554Z,74
2022-10-25T15:43:58.627Z,75
2022-10-25T15:45:02.699Z,75
2022-10-25T15:46:09.007Z,75
2022-10-25T15:47:27.083Z,76
2022-10-25T15:48:34.331Z,75
2022-10-25T15:49:38.455Z,75
2022-10-25T15:50:42.579Z,75
2022-10-25T15:51:52.491Z,76
2022-10-25T15:53:08.111Z,76
2022-10-25T15:54:12.598Z,76
2022-10-25T15:55:16.827Z,77
2022-10-25T15:56:23.903Z,77
2022-10-25T15:57:28.218Z,78
2022-10-25T15:58:35.119Z,78
2022-10-25T15:59:39.278Z,78
2022-10-25T16:00:46.070Z,78
2022-10-25T16:01:50.737Z,78
2022-10-25T16:02:55.223Z,78
2022-10-25T16:04:05.106Z,78
2022-10-25T16:05:09.434Z,78
2022-10-25T16:08:14.650Z,78
2022-10-25T16:09:50.779Z,78
2022-10-25T16:10:55.011Z,78
2022-10-25T16:11:59.542Z,78
2022-10-25T16:13:09.879Z,78
2022-10-25T16:14:17.402Z,78
2022-10-25T16:15:27.246Z,78
2022-10-25T16:16:40.569Z,79
2022-10-25T16:17:36.479Z,79
2022-10-25T16:18:59.777Z,79
2022-10-25T16:20:01.519Z,79
2022-10-25T16:21:19.151Z,79
2022-10-25T16:22:23.230Z,79
2022-10-25T16:23:27.322Z,79
2022-10-25T16:24:33.055Z,79
2022-10-25T16:25:37.692Z,79
2022-10-25T16:26:53.070Z,79
2022-10-25T16:27:57.482Z,79
2022-10-25T16:29:01.826Z,79
2022-10-25T16:30:11.101Z,79
2022-10-25T16:31:18.444Z,79
2022-10-25T16:32:33.052Z,80
2022-10-25T16:33:37.355Z,80
2022-10-25T16:34:41.404Z,80
2022-10-25T16:37:41.782Z,80
2022-10-25T16:38:46.557Z,80
2022-10-25T16:39:50.891Z,80
2022-10-25T16:40:55.286Z,80
2022-10-25T16:42:03.011Z,80
2022-10-25T16:43:08.215Z,80
2022-10-25T16:44:12.929Z,80
2022-10-25T16:45:17.464Z,81
2022-10-25T16:46:25.406Z,81
2022-10-25T16:49:32.934Z,80
2022-10-25T16:50:37.359Z,81
2022-10-25T16:51:41.498Z,81
2022-10-25T16:52:46.318Z,81
2022-10-25T16:55:53.159Z,81
2022-10-25T16:56:57.430Z,81
2022-10-25T16:58:01.911Z,81
2022-10-25T16:59:06.540Z,81
2022-10-25T17:00:11.011Z,81
2022-10-25T17:01:18.285Z,82
2022-10-25T17:02:22.498Z,82
2022-10-25T17:03:26.650Z,82
2022-10-25T17:04:31.175Z,82
2022-10-25T17:05:39.039Z,82
2022-10-25T17:06:43.440Z,82
2022-10-25T17:07:48.012Z,82
2022-10-25T17:08:52.530Z,82
2022-10-25T17:09:56.727Z,82
2022-10-25T17:12:37.039Z,82
2022-10-25T17:13:46.606Z,82
2022-10-25T17:14:50.830Z,82
2022-10-25T17:15:55.374Z,82
2022-10-25T17:17:02.262Z,82
2022-10-25T17:19:06.643Z,82
2022-10-25T17:20:46.758Z,82
2022-10-25T17:21:51.055Z,82
2022-10-25T17:22:56.046Z,82
2022-10-25T17:24:00.765Z,82
2022-10-25T17:25:05.242Z,82
2022-10-25T17:26:16.201Z,82
2022-10-25T17:27:20.646Z,82
2022-10-25T17:28:33.965Z,82
2022-10-25T17:29:38.653Z,82
2022-10-25T17:30:43.234Z,82
2022-10-25T17:31:52.358Z,82
2022-10-25T17:32:56.909Z,82
2022-10-25T17:34:09.867Z,82
2022-10-25T17:35:14.507Z,82
2022-10-25T17:36:18.844Z,82
2022-10-25T17:38:25.806Z,82
2022-10-25T17:40:21.354Z,82
2022-10-25T17:41:25.586Z,83
2022-10-25T17:42:29.673Z,83
2022-10-25T17:43:33.978Z,83
2022-10-25T17:44:38.607Z,83
2022-10-25T17:45:53.017Z,83
2022-10-25T17:47:02.202Z,83
2022-10-25T17:48:04.901Z,83
2022-10-25T17:49:09.018Z,83
2022-10-25T17:50:13.279Z,83
2022-10-25T17:51:37.094Z,83
2022-10-25T17:52:41.184Z,83
2022-10-25T17:53:45.459Z,83
2022-10-25T17:54:52.394Z,83
2022-10-25T17:55:56.540Z,83
2022-10-25T17:57:17.901Z,83
2022-10-25T17:58:22.521Z,83
2022-10-25T17:59:26.900Z,83